BAW124 OBBI-EGLL
Flight info
| Callsign | BAW124 |
|---|---|
| Flight time | N/A |
| Altitude | 38000 |
| Route | BHR300/30R BHR B457 NARMI N697 HIL T540 ENABI L550 NOVPA N697 MENLI L677 CVO L617 NOZ L551 ANTAR DCT KUGGI DCT DIMIS DCT VAKSU DCT AMUGO DCT UVODI DCT UMSON DCT IXONA DCT RESIA DCT ELMUR DCT RIPUS DCT DITON DCT HOC DCT LUL DCT RLP DCT ROTSI DCT KOTUN DCT NINAL DCT ABNUR DCT DIMAL DCT ALESO |
| Aircraft | B772/H-SDE2E3FGHIJ5LORVWXY/LB1D1 |
Departure
| Time | N/A |
|---|---|
| Airport | Bahrain International Airport (OBBI) |
Arrival
| Time | 2026-05-07 18:37 |
|---|---|
| Airport | London Heathrow Airport (EGLL) |
| Time | Latitude | Longitude | Altitude | Speed | Heading |
|---|---|---|---|---|---|
| 2026-05-07 18:00 | 49.75171 | 2.35842 | 38049 ft | 470 kts | 321° |
| 2026-05-07 18:00 | 49.80404 | 2.29676 | 38053 ft | 470 kts | 320° |
| 2026-05-07 18:01 | 49.85591 | 2.23545 | 38053 ft | 470 kts | 320° |
| 2026-05-07 18:01 | 49.90763 | 2.17412 | 38053 ft | 470 kts | 320° |
| 2026-05-07 18:02 | 49.98544 | 2.08152 | 38053 ft | 469 kts | 320° |
| 2026-05-07 18:03 | 50.03044 | 2.02778 | 38053 ft | 468 kts | 320° |
| 2026-05-07 18:06 | 50.04760 | 2.00725 | 38054 ft | 468 kts | 320° |
| 2026-05-07 18:07 | 50.09900 | 1.94565 | 38054 ft | 468 kts | 320° |
| 2026-05-07 18:07 | 50.15077 | 1.88343 | 38052 ft | 468 kts | 320° |
| 2026-05-07 18:08 | 50.19946 | 1.81605 | 38053 ft | 466 kts | 313° |
| 2026-05-07 18:08 | 50.24566 | 1.74571 | 38052 ft | 466 kts | 313° |
| 2026-05-07 18:09 | 50.29175 | 1.67532 | 37783 ft | 460 kts | 313° |
| 2026-05-07 18:09 | 50.31473 | 1.64014 | 37034 ft | 467 kts | 313° |
| 2026-05-07 18:09 | 50.33778 | 1.60479 | 36288 ft | 474 kts | 313° |
| 2026-05-07 18:09 | 50.36140 | 1.56853 | 35499 ft | 480 kts | 313° |
| 2026-05-07 18:10 | 50.38513 | 1.53205 | 34651 ft | 486 kts | 313° |
| 2026-05-07 18:10 | 50.40904 | 1.49526 | 33781 ft | 490 kts | 313° |
| 2026-05-07 18:10 | 50.43325 | 1.45792 | 32803 ft | 492 kts | 314° |
| 2026-05-07 18:10 | 50.45739 | 1.42068 | 31822 ft | 492 kts | 314° |
| 2026-05-07 18:11 | 50.48183 | 1.38290 | 30901 ft | 491 kts | 314° |
| 2026-05-07 18:11 | 50.49802 | 1.35781 | 30508 ft | 486 kts | 313° |
| 2026-05-07 18:11 | 50.52829 | 1.30719 | 29736 ft | 473 kts | 310° |
| 2026-05-07 18:11 | 50.55037 | 1.26938 | 29016 ft | 467 kts | 310° |
| 2026-05-07 18:12 | 50.57209 | 1.23221 | 28379 ft | 460 kts | 310° |
| 2026-05-07 18:12 | 50.59400 | 1.19588 | 27788 ft | 452 kts | 312° |
| 2026-05-07 18:12 | 50.61586 | 1.16146 | 27285 ft | 444 kts | 313° |
| 2026-05-07 18:12 | 50.63748 | 1.12744 | 26769 ft | 437 kts | 313° |
| 2026-05-07 18:13 | 50.65882 | 1.09381 | 26240 ft | 432 kts | 313° |
| 2026-05-07 18:13 | 50.67971 | 1.06082 | 25704 ft | 427 kts | 313° |
| 2026-05-07 18:13 | 50.70057 | 1.02782 | 25179 ft | 422 kts | 313° |
| 2026-05-07 18:13 | 50.72115 | 0.99518 | 24664 ft | 417 kts | 313° |
| 2026-05-07 18:14 | 50.74128 | 0.96322 | 24158 ft | 412 kts | 313° |
| 2026-05-07 18:14 | 50.76173 | 0.93067 | 23638 ft | 423 kts | 313° |
| 2026-05-07 18:14 | 50.78270 | 0.89724 | 23100 ft | 425 kts | 313° |
| 2026-05-07 18:14 | 50.80319 | 0.86456 | 22570 ft | 421 kts | 313° |
| 2026-05-07 18:15 | 50.82346 | 0.83218 | 22034 ft | 416 kts | 313° |
| 2026-05-07 18:15 | 50.84366 | 0.79986 | 21493 ft | 411 kts | 313° |
| 2026-05-07 18:15 | 50.86356 | 0.76799 | 20962 ft | 407 kts | 313° |
| 2026-05-07 18:15 | 50.88347 | 0.73605 | 20417 ft | 403 kts | 313° |
| 2026-05-07 18:16 | 50.90296 | 0.70473 | 19879 ft | 401 kts | 313° |
| 2026-05-07 18:16 | 50.92230 | 0.67362 | 19343 ft | 398 kts | 313° |
| 2026-05-07 18:16 | 50.94160 | 0.64253 | 18796 ft | 394 kts | 313° |
| 2026-05-07 18:16 | 50.96081 | 0.61156 | 18251 ft | 391 kts | 313° |
| 2026-05-07 18:17 | 50.97969 | 0.58108 | 17710 ft | 388 kts | 313° |
| 2026-05-07 18:17 | 50.99845 | 0.55075 | 17134 ft | 385 kts | 313° |
| 2026-05-07 18:17 | 51.01708 | 0.52060 | 16556 ft | 382 kts | 313° |
| 2026-05-07 18:17 | 51.03564 | 0.49051 | 15989 ft | 379 kts | 313° |
| 2026-05-07 18:18 | 51.05398 | 0.46076 | 15433 ft | 376 kts | 313° |
| 2026-05-07 18:18 | 51.07202 | 0.43149 | 15088 ft | 367 kts | 314° |
| 2026-05-07 18:18 | 51.08990 | 0.40414 | 15040 ft | 350 kts | 315° |
| 2026-05-07 18:18 | 51.10719 | 0.37806 | 14912 ft | 334 kts | 315° |
| 2026-05-07 18:19 | 51.12381 | 0.35290 | 14631 ft | 315 kts | 315° |
| 2026-05-07 18:19 | 51.13940 | 0.32919 | 14284 ft | 303 kts | 314° |
| 2026-05-07 18:19 | 51.15449 | 0.30613 | 13724 ft | 300 kts | 314° |
| 2026-05-07 18:19 | 51.16943 | 0.28327 | 13136 ft | 299 kts | 314° |
| 2026-05-07 18:20 | 51.18438 | 0.26036 | 12564 ft | 296 kts | 314° |
| 2026-05-07 18:20 | 51.19915 | 0.23772 | 12003 ft | 293 kts | 314° |
| 2026-05-07 18:20 | 51.21363 | 0.21550 | 11560 ft | 286 kts | 314° |
| 2026-05-07 18:20 | 51.22753 | 0.19417 | 11432 ft | 268 kts | 314° |
| 2026-05-07 18:21 | 51.24060 | 0.17409 | 11143 ft | 260 kts | 314° |
| 2026-05-07 18:21 | 51.25354 | 0.15415 | 10711 ft | 258 kts | 314° |
| 2026-05-07 18:21 | 51.26635 | 0.13441 | 10279 ft | 256 kts | 314° |
| 2026-05-07 18:21 | 51.27915 | 0.11468 | 9866 ft | 254 kts | 314° |
| 2026-05-07 18:22 | 51.29189 | 0.09503 | 9434 ft | 251 kts | 314° |
| 2026-05-07 18:22 | 51.30014 | 0.08227 | 9060 ft | 256 kts | 314° |
| 2026-05-07 18:22 | 51.31799 | 0.05450 | 8208 ft | 274 kts | 314° |
| 2026-05-07 18:22 | 51.33147 | 0.03340 | 8088 ft | 273 kts | 314° |
| 2026-05-07 18:23 | 51.34302 | 0.00923 | 8075 ft | 278 kts | 293° |
| 2026-05-07 18:23 | 51.34732 | -0.02062 | 8092 ft | 276 kts | 274° |
| 2026-05-07 18:23 | 51.34833 | -0.05137 | 8088 ft | 276 kts | 271° |
| 2026-05-07 18:23 | 51.34882 | -0.08173 | 7962 ft | 273 kts | 272° |
| 2026-05-07 18:24 | 51.34949 | -0.11223 | 7599 ft | 274 kts | 271° |
| 2026-05-07 18:24 | 51.35025 | -0.14263 | 7284 ft | 273 kts | 271° |
| 2026-05-07 18:24 | 51.35110 | -0.17240 | 7099 ft | 267 kts | 271° |
| 2026-05-07 18:24 | 51.35159 | -0.20217 | 7083 ft | 271 kts | 270° |
| 2026-05-07 18:25 | 51.35216 | -0.23258 | 7088 ft | 272 kts | 271° |
| 2026-05-07 18:25 | 51.35280 | -0.26279 | 7080 ft | 272 kts | 272° |
| 2026-05-07 18:25 | 51.35367 | -0.29297 | 7060 ft | 272 kts | 272° |
| 2026-05-07 18:25 | 51.35392 | -0.32303 | 7062 ft | 272 kts | 271° |
| 2026-05-07 18:26 | 51.35449 | -0.35346 | 7055 ft | 273 kts | 271° |
| 2026-05-07 18:26 | 51.35501 | -0.38361 | 7052 ft | 272 kts | 271° |
| 2026-05-07 18:26 | 51.35553 | -0.41381 | 7056 ft | 272 kts | 271° |
| 2026-05-07 18:26 | 51.35605 | -0.44407 | 7056 ft | 272 kts | 271° |
| 2026-05-07 18:27 | 51.35656 | -0.47449 | 7056 ft | 272 kts | 271° |
| 2026-05-07 18:27 | 51.35707 | -0.50448 | 7054 ft | 272 kts | 271° |
| 2026-05-07 18:27 | 51.35757 | -0.53496 | 7055 ft | 272 kts | 271° |
| 2026-05-07 18:27 | 51.35807 | -0.56519 | 6993 ft | 268 kts | 271° |
| 2026-05-07 18:28 | 51.35857 | -0.59493 | 6632 ft | 270 kts | 271° |
| 2026-05-07 18:28 | 51.35905 | -0.62461 | 6318 ft | 269 kts | 271° |
| 2026-05-07 18:28 | 51.35954 | -0.65437 | 6018 ft | 267 kts | 270° |
| 2026-05-07 18:28 | 51.36004 | -0.68437 | 5708 ft | 266 kts | 270° |
| 2026-05-07 18:29 | 51.36053 | -0.71358 | 5582 ft | 257 kts | 270° |
| 2026-05-07 18:29 | 51.36159 | -0.74138 | 5540 ft | 246 kts | 282° |
| 2026-05-07 18:29 | 51.36687 | -0.76643 | 5497 ft | 235 kts | 290° |
| 2026-05-07 18:29 | 51.37288 | -0.79057 | 5261 ft | 234 kts | 290° |
| 2026-05-07 18:30 | 51.37915 | -0.81467 | 5031 ft | 233 kts | 298° |
| 2026-05-07 18:30 | 51.39012 | -0.83300 | 4987 ft | 227 kts | 331° |
| 2026-05-07 18:30 | 51.40476 | -0.83876 | 5007 ft | 210 kts | 358° |
| 2026-05-07 18:30 | 51.41890 | -0.83855 | 4994 ft | 199 kts | 1° |
| 2026-05-07 18:31 | 51.43272 | -0.83818 | 4991 ft | 197 kts | 1° |
| 2026-05-07 18:31 | 51.44632 | -0.83766 | 5004 ft | 195 kts | 5° |
| 2026-05-07 18:31 | 51.45869 | -0.82929 | 4968 ft | 196 kts | 45° |
| 2026-05-07 18:31 | 51.46645 | -0.81178 | 4831 ft | 190 kts | 59° |
| 2026-05-07 18:32 | 51.47289 | -0.79356 | 4353 ft | 191 kts | 67° |
| 2026-05-07 18:32 | 51.47604 | -0.77304 | 3874 ft | 189 kts | 85° |
| 2026-05-07 18:32 | 51.47651 | -0.75238 | 3546 ft | 182 kts | 90° |
| 2026-05-07 18:32 | 51.47651 | -0.73185 | 3289 ft | 187 kts | 91° |
| 2026-05-07 18:33 | 51.47655 | -0.71116 | 3022 ft | 185 kts | 91° |
| 2026-05-07 18:33 | 51.47660 | -0.69072 | 2760 ft | 182 kts | 91° |
| 2026-05-07 18:33 | 51.47669 | -0.67114 | 2511 ft | 166 kts | 91° |
| 2026-05-07 18:33 | 51.47678 | -0.65321 | 2325 ft | 164 kts | 91° |
| 2026-05-07 18:34 | 51.47686 | -0.63475 | 2081 ft | 162 kts | 91° |
| 2026-05-07 18:34 | 51.47690 | -0.61714 | 1849 ft | 158 kts | 90° |
| 2026-05-07 18:34 | 51.47704 | -0.59955 | 1619 ft | 158 kts | 91° |
| 2026-05-07 18:34 | 51.47711 | -0.58221 | 1382 ft | 152 kts | 91° |
| 2026-05-07 18:35 | 51.47718 | -0.56573 | 1161 ft | 141 kts | 92° |
| 2026-05-07 18:35 | 51.47724 | -0.55060 | 963 ft | 132 kts | 92° |
| 2026-05-07 18:35 | 51.47730 | -0.53649 | 782 ft | 122 kts | 92° |
| 2026-05-07 18:35 | 51.47734 | -0.52294 | 619 ft | 123 kts | 92° |
| 2026-05-07 18:36 | 51.47740 | -0.50925 | 447 ft | 123 kts | 93° |
| 2026-05-07 18:36 | 51.47745 | -0.49556 | 262 ft | 122 kts | 92° |
| 2026-05-07 18:36 | 51.47751 | -0.48198 | 105 ft | 121 kts | 92° |
| 2026-05-07 18:36 | 51.47754 | -0.47023 | 95 ft | 83 kts | 89° |
| 2026-05-07 18:37 | 51.47757 | -0.46352 | 95 ft | 37 kts | 90° |
| 2026-05-07 18:37 | 51.47680 | -0.46120 | 95 ft | 19 kts | 144° |
| 2026-05-07 18:37 | 51.47598 | -0.46062 | 94 ft | 11 kts | 184° |
| 2026-05-07 18:37 | 51.47536 | -0.46080 | 94 ft | 9 kts | 195° |
| 2026-05-07 18:38 | 51.47517 | -0.46162 | 94 ft | 10 kts | 269° |
| 2026-05-07 18:38 | 51.47516 | -0.46211 | 94 ft | 5 kts | 269° |
| 2026-05-07 18:38 | 51.47515 | -0.46294 | 94 ft | 9 kts | 269° |
| 2026-05-07 18:38 | 51.47514 | -0.46468 | 94 ft | 18 kts | 270° |
| 2026-05-07 18:39 | 51.47513 | -0.46681 | 94 ft | 20 kts | 261° |
| 2026-05-07 18:39 | 51.47493 | -0.46907 | 94 ft | 21 kts | 268° |
| 2026-05-07 18:39 | 51.47492 | -0.47152 | 94 ft | 22 kts | 269° |
| 2026-05-07 18:39 | 51.47489 | -0.47407 | 94 ft | 23 kts | 269° |
| 2026-05-07 18:40 | 51.47492 | -0.47675 | 94 ft | 24 kts | 270° |
| 2026-05-07 18:40 | 51.47488 | -0.47953 | 94 ft | 25 kts | 269° |
| 2026-05-07 18:40 | 51.47489 | -0.48242 | 94 ft | 22 kts | 269° |
| 2026-05-07 18:40 | 51.47435 | -0.48361 | 94 ft | 15 kts | 178° |
| 2026-05-07 18:41 | 51.47321 | -0.48359 | 94 ft | 17 kts | 179° |
| 2026-05-07 18:41 | 51.47213 | -0.48359 | 94 ft | 14 kts | 179° |
| 2026-05-07 18:41 | 51.47109 | -0.48358 | 93 ft | 15 kts | 179° |
| 2026-05-07 18:41 | 51.46995 | -0.48358 | 93 ft | 16 kts | 179° |
| 2026-05-07 18:42 | 51.46883 | -0.48357 | 93 ft | 12 kts | 179° |
| 2026-05-07 18:42 | 51.46847 | -0.48310 | 93 ft | 8 kts | 92° |
| 2026-05-07 18:42 | 51.46847 | -0.48225 | 93 ft | 0 kts | 89° |